Accueil
METAR-TAF:

METAR-TAF

Aéroports :

Southampton, Angleterre

Aéroport de Southampton

latitude: 50-54N, longitude: 001-24W, altitude: 9 m

Observation

Le bulletin a été fait il y a 27 minutes, à 18:50 UTC
Vent 7 kt de nord-ouest, variant entre ouest et nord
Température 0°C
Humidité 80%
Pression 994 hPa
Visibilité 10 km ou plus
pas de nuages en-dessous de 1500 mètres et pas de cumulonimbus.

METAR: EGHI 111850Z 32007KT 270V360 CAVOK 00/M03 Q0994

Heure: 19:17 (19:17 UTC)

Prévision

Le bulletin a été fait il y a 2 heures et 16 minutes, à 17:01 UTC
Prévision valable du 11 à 18 UTC au 11 à 23 UTC
Vent 9 kt de nord/nord-ouest
Visibilité 10 km ou plus
Nuages épars à une hauteur de 2000 ft

TAF: EGHI 111701Z 1118/1123 33009KT 9999 SCT020

Observations et prévisions météorologiques de plus de 4000 aéroports (messages METAR et TAF).

Les stations disponibles sont représentées par des disques jaunes et rouges sur la carte.

Passer la souris dessus pour voir le nom de la station.

Cliquer dessus pour voir les observations et prévisions météorologiques.

Pour changer de carte: cliquez sur les boutons verts avec une croix noire pour zoomer, sur le bouton vert avec un tiret pour effectuer un zoom arrière, ou sur les flèches vertes pour les cartes adjacentes.


METAR-TAF: